sensor_id;sensor_type;location;lat;lon;timestamp;P1;durP1;ratioP1;P2;durP2;ratioP2
78877;SDS011;68257;43.514;1.498;2023-02-28T00:00:18;6.33;;;3.83;;
78877;SDS011;68257;43.514;1.498;2023-02-28T00:02:44;6.97;;;3.70;;
78877;SDS011;68257;43.514;1.498;2023-02-28T00:05:10;7.18;;;3.65;;
78877;SDS011;68257;43.514;1.498;2023-02-28T00:07:38;5.95;;;2.85;;
78877;SDS011;68257;43.514;1.498;2023-02-28T00:10:04;5.47;;;3.50;;
78877;SDS011;68257;43.514;1.498;2023-02-28T00:12:34;5.82;;;3.58;;
78877;SDS011;68257;43.514;1.498;2023-02-28T00:15:00;5.55;;;3.38;;
78877;SDS011;68257;43.514;1.498;2023-02-28T00:17:26;6.03;;;3.25;;
78877;SDS011;68257;43.514;1.498;2023-02-28T00:19:52;6.77;;;3.63;;
78877;SDS011;68257;43.514;1.498;2023-02-28T00:22:18;6.87;;;3.77;;
78877;SDS011;68257;43.514;1.498;2023-02-28T00:24:44;5.47;;;3.30;;
78877;SDS011;68257;43.514;1.498;2023-02-28T00:27:10;6.90;;;3.55;;
78877;SDS011;68257;43.514;1.498;2023-02-28T00:29:35;7.07;;;3.57;;
78877;SDS011;68257;43.514;1.498;2023-02-28T00:32:01;6.00;;;3.13;;
78877;SDS011;68257;43.514;1.498;2023-02-28T00:34:26;5.80;;;2.92;;
78877;SDS011;68257;43.514;1.498;2023-02-28T00:36:52;5.35;;;2.50;;
78877;SDS011;68257;43.514;1.498;2023-02-28T00:39:17;5.43;;;3.40;;
78877;SDS011;68257;43.514;1.498;2023-02-28T00:41:43;5.13;;;3.00;;
78877;SDS011;68257;43.514;1.498;2023-02-28T00:44:08;6.03;;;3.73;;
78877;SDS011;68257;43.514;1.498;2023-02-28T00:46:34;5.65;;;3.35;;
78877;SDS011;68257;43.514;1.498;2023-02-28T00:48:59;5.77;;;3.30;;
78877;SDS011;68257;43.514;1.498;2023-02-28T00:51:25;6.77;;;3.73;;
78877;SDS011;68257;43.514;1.498;2023-02-28T00:53:50;6.40;;;3.30;;
78877;SDS011;68257;43.514;1.498;2023-02-28T00:56:15;5.93;;;3.40;;
78877;SDS011;68257;43.514;1.498;2023-02-28T00:58:41;6.97;;;3.30;;
78877;SDS011;68257;43.514;1.498;2023-02-28T01:01:06;5.50;;;3.23;;
78877;SDS011;68257;43.514;1.498;2023-02-28T01:03:32;6.40;;;3.30;;
78877;SDS011;68257;43.514;1.498;2023-02-28T01:05:57;5.60;;;3.40;;
78877;SDS011;68257;43.514;1.498;2023-02-28T01:08:23;6.15;;;3.58;;
78877;SDS011;68257;43.514;1.498;2023-02-28T01:10:48;5.87;;;3.33;;
78877;SDS011;68257;43.514;1.498;2023-02-28T01:13:14;5.90;;;3.37;;
78877;SDS011;68257;43.514;1.498;2023-02-28T01:15:49;9.80;;;4.97;;
78877;SDS011;68257;43.514;1.498;2023-02-28T01:18:16;5.70;;;3.00;;
78877;SDS011;68257;43.514;1.498;2023-02-28T01:20:42;5.65;;;3.40;;
78877;SDS011;68257;43.514;1.498;2023-02-28T01:23:07;7.80;;;3.73;;
78877;SDS011;68257;43.514;1.498;2023-02-28T01:25:34;8.57;;;4.32;;
78877;SDS011;68257;43.514;1.498;2023-02-28T01:28:00;9.18;;;4.72;;
78877;SDS011;68257;43.514;1.498;2023-02-28T01:30:26;7.13;;;4.20;;
78877;SDS011;68257;43.514;1.498;2023-02-28T01:32:51;6.63;;;3.83;;
78877;SDS011;68257;43.514;1.498;2023-02-28T01:35:18;7.17;;;3.77;;
78877;SDS011;68257;43.514;1.498;2023-02-28T01:37:44;6.75;;;4.07;;
78877;SDS011;68257;43.514;1.498;2023-02-28T01:40:09;6.37;;;4.13;;
78877;SDS011;68257;43.514;1.498;2023-02-28T01:42:35;6.47;;;4.18;;
78877;SDS011;68257;43.514;1.498;2023-02-28T01:47:45;6.57;;;3.55;;
78877;SDS011;68257;43.514;1.498;2023-02-28T01:50:15;5.90;;;4.17;;
78877;SDS011;68257;43.514;1.498;2023-02-28T01:52:46;6.38;;;3.92;;
78877;SDS011;68257;43.514;1.498;2023-02-28T01:55:12;6.55;;;3.70;;
78877;SDS011;68257;43.514;1.498;2023-02-28T01:57:39;7.00;;;4.10;;
78877;SDS011;68257;43.514;1.498;2023-02-28T02:00:08;6.83;;;4.20;;
78877;SDS011;68257;43.514;1.498;2023-02-28T02:02:41;6.22;;;3.80;;
78877;SDS011;68257;43.514;1.498;2023-02-28T02:05:10;6.35;;;3.60;;
78877;SDS011;68257;43.514;1.498;2023-02-28T02:07:40;6.85;;;4.00;;
78877;SDS011;68257;43.514;1.498;2023-02-28T02:10:11;7.93;;;4.22;;
78877;SDS011;68257;43.514;1.498;2023-02-28T02:15:14;6.25;;;3.60;;
78877;SDS011;68257;43.514;1.498;2023-02-28T02:17:44;9.93;;;3.90;;
78877;SDS011;68257;43.514;1.498;2023-02-28T02:28:22;6.32;;;3.72;;
78877;SDS011;68257;43.514;1.498;2023-02-28T02:31:06;7.50;;;4.30;;
78877;SDS011;68257;43.514;1.498;2023-02-28T02:36:58;7.47;;;4.22;;
78877;SDS011;68257;43.514;1.498;2023-02-28T02:40:16;6.90;;;4.00;;
78877;SDS011;68257;43.514;1.498;2023-02-28T02:42:40;6.88;;;3.83;;
78877;SDS011;68257;43.514;1.498;2023-02-28T02:45:12;7.05;;;3.83;;
78877;SDS011;68257;43.514;1.498;2023-02-28T02:47:39;7.82;;;4.13;;
78877;SDS011;68257;43.514;1.498;2023-02-28T02:50:07;7.28;;;4.20;;
78877;SDS011;68257;43.514;1.498;2023-02-28T02:52:38;7.77;;;4.17;;
78877;SDS011;68257;43.514;1.498;2023-02-28T02:55:06;8.88;;;4.22;;
78877;SDS011;68257;43.514;1.498;2023-02-28T02:57:37;7.55;;;3.85;;
78877;SDS011;68257;43.514;1.498;2023-02-28T03:00:08;7.35;;;4.50;;
78877;SDS011;68257;43.514;1.498;2023-02-28T03:02:35;7.97;;;4.32;;
78877;SDS011;68257;43.514;1.498;2023-02-28T03:05:04;11.07;;;4.43;;
78877;SDS011;68257;43.514;1.498;2023-02-28T03:07:33;7.50;;;4.65;;
78877;SDS011;68257;43.514;1.498;2023-02-28T03:09:58;9.30;;;4.10;;
78877;SDS011;68257;43.514;1.498;2023-02-28T03:12:27;7.13;;;4.40;;
78877;SDS011;68257;43.514;1.498;2023-02-28T03:22:59;7.63;;;3.58;;
78877;SDS011;68257;43.514;1.498;2023-02-28T03:25:39;8.75;;;4.40;;
78877;SDS011;68257;43.514;1.498;2023-02-28T03:28:41;8.77;;;4.67;;
78877;SDS011;68257;43.514;1.498;2023-02-28T03:31:33;8.02;;;4.70;;
78877;SDS011;68257;43.514;1.498;2023-02-28T03:34:08;9.95;;;4.95;;
78877;SDS011;68257;43.514;1.498;2023-02-28T03:36:38;8.10;;;4.50;;
78877;SDS011;68257;43.514;1.498;2023-02-28T03:39:19;11.18;;;4.53;;
78877;SDS011;68257;43.514;1.498;2023-02-28T03:42:00;8.07;;;4.70;;
78877;SDS011;68257;43.514;1.498;2023-02-28T03:44:41;7.40;;;3.97;;
78877;SDS011;68257;43.514;1.498;2023-02-28T03:47:12;8.35;;;4.90;;
78877;SDS011;68257;43.514;1.498;2023-02-28T03:49:49;10.20;;;4.57;;
78877;SDS011;68257;43.514;1.498;2023-02-28T03:52:18;7.88;;;4.53;;
78877;SDS011;68257;43.514;1.498;2023-02-28T03:54:46;7.93;;;4.77;;
78877;SDS011;68257;43.514;1.498;2023-02-28T04:00:34;8.48;;;4.65;;
78877;SDS011;68257;43.514;1.498;2023-02-28T04:03:03;7.55;;;4.70;;
78877;SDS011;68257;43.514;1.498;2023-02-28T04:05:29;7.77;;;4.73;;
78877;SDS011;68257;43.514;1.498;2023-02-28T04:07:55;8.30;;;4.35;;
78877;SDS011;68257;43.514;1.498;2023-02-28T04:10:29;9.73;;;4.93;;
78877;SDS011;68257;43.514;1.498;2023-02-28T04:12:54;7.13;;;4.47;;
78877;SDS011;68257;43.514;1.498;2023-02-28T04:15:20;8.60;;;5.00;;
78877;SDS011;68257;43.514;1.498;2023-02-28T04:17:47;7.72;;;4.68;;
78877;SDS011;68257;43.514;1.498;2023-02-28T04:20:13;8.30;;;4.90;;
78877;SDS011;68257;43.514;1.498;2023-02-28T04:22:38;8.80;;;4.93;;
78877;SDS011;68257;43.514;1.498;2023-02-28T04:25:04;8.60;;;4.53;;
78877;SDS011;68257;43.514;1.498;2023-02-28T04:27:30;7.60;;;4.82;;
78877;SDS011;68257;43.514;1.498;2023-02-28T04:29:56;7.50;;;5.00;;
78877;SDS011;68257;43.514;1.498;2023-02-28T04:32:21;10.02;;;4.93;;
78877;SDS011;68257;43.514;1.498;2023-02-28T04:34:46;8.85;;;5.05;;
78877;SDS011;68257;43.514;1.498;2023-02-28T04:37:12;10.10;;;5.30;;
78877;SDS011;68257;43.514;1.498;2023-02-28T04:39:37;7.97;;;5.23;;
78877;SDS011;68257;43.514;1.498;2023-02-28T04:42:03;8.47;;;5.70;;
78877;SDS011;68257;43.514;1.498;2023-02-28T04:44:28;7.90;;;5.40;;
78877;SDS011;68257;43.514;1.498;2023-02-28T04:46:54;9.13;;;5.70;;
78877;SDS011;68257;43.514;1.498;2023-02-28T04:49:19;9.33;;;5.97;;
78877;SDS011;68257;43.514;1.498;2023-02-28T04:51:44;9.00;;;5.30;;
78877;SDS011;68257;43.514;1.498;2023-02-28T04:54:10;9.23;;;5.60;;
78877;SDS011;68257;43.514;1.498;2023-02-28T04:56:36;12.38;;;6.03;;
78877;SDS011;68257;43.514;1.498;2023-02-28T04:59:01;9.90;;;5.72;;
78877;SDS011;68257;43.514;1.498;2023-02-28T05:01:27;10.13;;;5.57;;
78877;SDS011;68257;43.514;1.498;2023-02-28T05:03:55;9.10;;;5.53;;
78877;SDS011;68257;43.514;1.498;2023-02-28T05:06:21;9.50;;;5.47;;
78877;SDS011;68257;43.514;1.498;2023-02-28T05:08:50;11.57;;;5.53;;
78877;SDS011;68257;43.514;1.498;2023-02-28T05:11:26;8.07;;;5.70;;
78877;SDS011;68257;43.514;1.498;2023-02-28T05:13:54;9.90;;;5.93;;
78877;SDS011;68257;43.514;1.498;2023-02-28T05:16:20;11.75;;;5.80;;
78877;SDS011;68257;43.514;1.498;2023-02-28T05:18:46;9.93;;;6.47;;
78877;SDS011;68257;43.514;1.498;2023-02-28T05:21:30;10.80;;;5.57;;
78877;SDS011;68257;43.514;1.498;2023-02-28T05:24:00;9.38;;;5.90;;
78877;SDS011;68257;43.514;1.498;2023-02-28T05:26:27;10.50;;;6.13;;
78877;SDS011;68257;43.514;1.498;2023-02-28T05:28:53;11.10;;;5.68;;
78877;SDS011;68257;43.514;1.498;2023-02-28T05:31:18;10.02;;;6.25;;
78877;SDS011;68257;43.514;1.498;2023-02-28T05:33:43;9.10;;;5.53;;
78877;SDS011;68257;43.514;1.498;2023-02-28T05:36:09;11.67;;;6.73;;
78877;SDS011;68257;43.514;1.498;2023-02-28T05:38:35;14.32;;;12.77;;
78877;SDS011;68257;43.514;1.498;2023-02-28T05:41:04;9.35;;;5.75;;
78877;SDS011;68257;43.514;1.498;2023-02-28T05:43:30;8.07;;;4.83;;
78877;SDS011;68257;43.514;1.498;2023-02-28T05:45:55;10.52;;;6.10;;
78877;SDS011;68257;43.514;1.498;2023-02-28T05:48:21;13.67;;;6.57;;
78877;SDS011;68257;43.514;1.498;2023-02-28T05:50:46;10.17;;;6.03;;
78877;SDS011;68257;43.514;1.498;2023-02-28T05:53:11;8.50;;;6.00;;
78877;SDS011;68257;43.514;1.498;2023-02-28T05:55:37;10.27;;;6.30;;
78877;SDS011;68257;43.514;1.498;2023-02-28T05:58:03;9.40;;;4.57;;
78877;SDS011;68257;43.514;1.498;2023-02-28T06:00:28;9.63;;;5.73;;
78877;SDS011;68257;43.514;1.498;2023-02-28T06:02:54;10.17;;;6.00;;
78877;SDS011;68257;43.514;1.498;2023-02-28T06:05:22;10.50;;;6.40;;
78877;SDS011;68257;43.514;1.498;2023-02-28T06:07:48;8.83;;;6.03;;
78877;SDS011;68257;43.514;1.498;2023-02-28T06:10:13;10.90;;;5.50;;
78877;SDS011;68257;43.514;1.498;2023-02-28T06:12:39;8.73;;;5.60;;
78877;SDS011;68257;43.514;1.498;2023-02-28T06:15:06;9.63;;;6.10;;
78877;SDS011;68257;43.514;1.498;2023-02-28T06:17:33;10.63;;;5.87;;
78877;SDS011;68257;43.514;1.498;2023-02-28T06:19:58;9.05;;;5.97;;
78877;SDS011;68257;43.514;1.498;2023-02-28T06:22:23;10.20;;;5.67;;
78877;SDS011;68257;43.514;1.498;2023-02-28T06:24:49;10.17;;;6.07;;
78877;SDS011;68257;43.514;1.498;2023-02-28T06:27:14;9.90;;;6.20;;
78877;SDS011;68257;43.514;1.498;2023-02-28T06:29:40;9.73;;;5.50;;
78877;SDS011;68257;43.514;1.498;2023-02-28T06:32:05;11.80;;;7.63;;
78877;SDS011;68257;43.514;1.498;2023-02-28T06:34:31;8.60;;;4.60;;
78877;SDS011;68257;43.514;1.498;2023-02-28T06:36:56;8.63;;;5.43;;
78877;SDS011;68257;43.514;1.498;2023-02-28T06:39:27;11.73;;;6.80;;
78877;SDS011;68257;43.514;1.498;2023-02-28T06:41:54;10.52;;;6.25;;
78877;SDS011;68257;43.514;1.498;2023-02-28T06:44:19;8.80;;;6.00;;
78877;SDS011;68257;43.514;1.498;2023-02-28T06:46:45;9.23;;;5.70;;
78877;SDS011;68257;43.514;1.498;2023-02-28T06:49:11;11.50;;;7.30;;
78877;SDS011;68257;43.514;1.498;2023-02-28T06:51:37;9.43;;;5.60;;
78877;SDS011;68257;43.514;1.498;2023-02-28T06:54:05;9.70;;;5.45;;
78877;SDS011;68257;43.514;1.498;2023-02-28T06:56:33;11.27;;;6.50;;
78877;SDS011;68257;43.514;1.498;2023-02-28T06:58:59;9.32;;;6.47;;
78877;SDS011;68257;43.514;1.498;2023-02-28T07:01:25;9.50;;;6.10;;
78877;SDS011;68257;43.514;1.498;2023-02-28T07:03:50;8.35;;;5.70;;
78877;SDS011;68257;43.514;1.498;2023-02-28T07:06:18;8.73;;;5.77;;
78877;SDS011;68257;43.514;1.498;2023-02-28T07:08:44;9.77;;;5.47;;
78877;SDS011;68257;43.514;1.498;2023-02-28T07:11:10;7.40;;;4.97;;
78877;SDS011;68257;43.514;1.498;2023-02-28T07:13:35;10.90;;;5.90;;
78877;SDS011;68257;43.514;1.498;2023-02-28T07:16:03;8.88;;;5.53;;
78877;SDS011;68257;43.514;1.498;2023-02-28T07:18:29;13.80;;;5.00;;
78877;SDS011;68257;43.514;1.498;2023-02-28T07:20:55;9.55;;;5.68;;
78877;SDS011;68257;43.514;1.498;2023-02-28T07:23:21;8.73;;;4.60;;
78877;SDS011;68257;43.514;1.498;2023-02-28T07:25:46;9.00;;;5.35;;
78877;SDS011;68257;43.514;1.498;2023-02-28T07:28:12;10.93;;;6.10;;
78877;SDS011;68257;43.514;1.498;2023-02-28T07:30:38;11.95;;;6.70;;
78877;SDS011;68257;43.514;1.498;2023-02-28T07:33:04;9.32;;;4.75;;
78877;SDS011;68257;43.514;1.498;2023-02-28T07:35:29;10.37;;;5.63;;
78877;SDS011;68257;43.514;1.498;2023-02-28T07:37:56;9.13;;;5.60;;
78877;SDS011;68257;43.514;1.498;2023-02-28T07:40:23;8.23;;;5.30;;
78877;SDS011;68257;43.514;1.498;2023-02-28T07:42:48;11.23;;;5.67;;
78877;SDS011;68257;43.514;1.498;2023-02-28T07:45:14;11.25;;;6.53;;
78877;SDS011;68257;43.514;1.498;2023-02-28T07:47:39;9.50;;;5.17;;
78877;SDS011;68257;43.514;1.498;2023-02-28T07:50:05;8.63;;;4.93;;
78877;SDS011;68257;43.514;1.498;2023-02-28T07:52:32;9.35;;;5.70;;
78877;SDS011;68257;43.514;1.498;2023-02-28T07:54:57;8.53;;;5.40;;
78877;SDS011;68257;43.514;1.498;2023-02-28T07:57:23;8.80;;;4.03;;
78877;SDS011;68257;43.514;1.498;2023-02-28T07:59:48;8.17;;;4.77;;
78877;SDS011;68257;43.514;1.498;2023-02-28T08:02:17;8.17;;;5.53;;
78877;SDS011;68257;43.514;1.498;2023-02-28T08:04:43;8.70;;;5.00;;
78877;SDS011;68257;43.514;1.498;2023-02-28T08:07:09;8.65;;;5.07;;
78877;SDS011;68257;43.514;1.498;2023-02-28T08:09:38;8.33;;;4.93;;
78877;SDS011;68257;43.514;1.498;2023-02-28T08:12:04;8.27;;;5.22;;
78877;SDS011;68257;43.514;1.498;2023-02-28T08:14:30;8.57;;;5.28;;
78877;SDS011;68257;43.514;1.498;2023-02-28T08:16:55;8.27;;;5.07;;
78877;SDS011;68257;43.514;1.498;2023-02-28T08:19:20;13.60;;;5.10;;
78877;SDS011;68257;43.514;1.498;2023-02-28T08:21:46;9.00;;;5.17;;
78877;SDS011;68257;43.514;1.498;2023-02-28T08:24:11;8.80;;;4.80;;
78877;SDS011;68257;43.514;1.498;2023-02-28T08:26:36;6.82;;;4.57;;
78877;SDS011;68257;43.514;1.498;2023-02-28T08:29:02;7.93;;;4.80;;
78877;SDS011;68257;43.514;1.498;2023-02-28T08:31:27;7.87;;;4.63;;
78877;SDS011;68257;43.514;1.498;2023-02-28T08:33:53;10.50;;;5.03;;
78877;SDS011;68257;43.514;1.498;2023-02-28T08:36:20;6.93;;;4.70;;
78877;SDS011;68257;43.514;1.498;2023-02-28T08:38:46;7.73;;;4.47;;
78877;SDS011;68257;43.514;1.498;2023-02-28T08:41:12;7.60;;;4.50;;
78877;SDS011;68257;43.514;1.498;2023-02-28T08:43:38;10.25;;;5.22;;
78877;SDS011;68257;43.514;1.498;2023-02-28T08:46:04;7.65;;;4.68;;
78877;SDS011;68257;43.514;1.498;2023-02-28T08:48:31;7.45;;;5.10;;
78877;SDS011;68257;43.514;1.498;2023-02-28T08:50:58;7.93;;;5.17;;
78877;SDS011;68257;43.514;1.498;2023-02-28T08:53:28;7.95;;;4.90;;
78877;SDS011;68257;43.514;1.498;2023-02-28T08:55:58;8.30;;;4.80;;
78877;SDS011;68257;43.514;1.498;2023-02-28T08:58:50;6.87;;;4.73;;
78877;SDS011;68257;43.514;1.498;2023-02-28T09:01:17;6.53;;;4.97;;
78877;SDS011;68257;43.514;1.498;2023-02-28T09:03:44;6.85;;;4.40;;
78877;SDS011;68257;43.514;1.498;2023-02-28T09:06:11;6.95;;;4.70;;
78877;SDS011;68257;43.514;1.498;2023-02-28T09:08:37;7.50;;;5.15;;
78877;SDS011;68257;43.514;1.498;2023-02-28T09:11:03;8.30;;;5.07;;
78877;SDS011;68257;43.514;1.498;2023-02-28T09:13:29;7.68;;;4.80;;
78877;SDS011;68257;43.514;1.498;2023-02-28T09:15:57;6.95;;;4.53;;
78877;SDS011;68257;43.514;1.498;2023-02-28T09:18:23;6.83;;;4.73;;
78877;SDS011;68257;43.514;1.498;2023-02-28T09:20:48;6.03;;;4.32;;
78877;SDS011;68257;43.514;1.498;2023-02-28T09:23:14;8.03;;;5.30;;
78877;SDS011;68257;43.514;1.498;2023-02-28T09:25:49;7.70;;;5.03;;
78877;SDS011;68257;43.514;1.498;2023-02-28T09:28:16;8.32;;;5.05;;
78877;SDS011;68257;43.514;1.498;2023-02-28T09:30:43;8.75;;;4.90;;
78877;SDS011;68257;43.514;1.498;2023-02-28T09:33:09;8.17;;;5.33;;
78877;SDS011;68257;43.514;1.498;2023-02-28T09:35:35;6.63;;;4.30;;
78877;SDS011;68257;43.514;1.498;2023-02-28T09:38:02;8.13;;;4.53;;
78877;SDS011;68257;43.514;1.498;2023-02-28T09:40:28;6.97;;;4.55;;
78877;SDS011;68257;43.514;1.498;2023-02-28T09:42:54;6.97;;;4.55;;
78877;SDS011;68257;43.514;1.498;2023-02-28T09:47:47;8.30;;;4.83;;
78877;SDS011;68257;43.514;1.498;2023-02-28T09:52:51;6.90;;;5.40;;
78877;SDS011;68257;43.514;1.498;2023-02-28T09:55:19;8.13;;;6.05;;
78877;SDS011;68257;43.514;1.498;2023-02-28T09:57:45;8.18;;;6.03;;
78877;SDS011;68257;43.514;1.498;2023-02-28T10:00:13;6.60;;;4.47;;
78877;SDS011;68257;43.514;1.498;2023-02-28T10:02:55;10.30;;;5.88;;
78877;SDS011;68257;43.514;1.498;2023-02-28T10:08:15;8.15;;;4.40;;
78877;SDS011;68257;43.514;1.498;2023-02-28T10:10:50;7.23;;;4.80;;
78877;SDS011;68257;43.514;1.498;2023-02-28T10:15:54;9.60;;;4.93;;
78877;SDS011;68257;43.514;1.498;2023-02-28T10:18:23;8.80;;;4.55;;
78877;SDS011;68257;43.514;1.498;2023-02-28T10:20:50;7.55;;;5.15;;
78877;SDS011;68257;43.514;1.498;2023-02-28T10:23:25;8.57;;;4.70;;
78877;SDS011;68257;43.514;1.498;2023-02-28T10:26:00;6.95;;;4.70;;
78877;SDS011;68257;43.514;1.498;2023-02-28T10:28:33;7.25;;;4.85;;
78877;SDS011;68257;43.514;1.498;2023-02-28T10:30:58;9.10;;;5.00;;
78877;SDS011;68257;43.514;1.498;2023-02-28T10:35:57;9.93;;;5.05;;
78877;SDS011;68257;43.514;1.498;2023-02-28T10:38:33;6.97;;;5.05;;
78877;SDS011;68257;43.514;1.498;2023-02-28T10:41:11;9.35;;;6.00;;
78877;SDS011;68257;43.514;1.498;2023-02-28T10:43:38;13.32;;;7.15;;
78877;SDS011;68257;43.514;1.498;2023-02-28T10:51:02;7.50;;;4.65;;
78877;SDS011;68257;43.514;1.498;2023-02-28T10:58:31;8.30;;;5.10;;
78877;SDS011;68257;43.514;1.498;2023-02-28T11:01:16;6.22;;;4.15;;
78877;SDS011;68257;43.514;1.498;2023-02-28T11:03:57;8.13;;;4.88;;
78877;SDS011;68257;43.514;1.498;2023-02-28T11:06:26;11.60;;;4.68;;
78877;SDS011;68257;43.514;1.498;2023-02-28T11:08:56;7.50;;;5.10;;
78877;SDS011;68257;43.514;1.498;2023-02-28T11:11:24;8.02;;;4.80;;
78877;SDS011;68257;43.514;1.498;2023-02-28T11:13:52;9.80;;;5.55;;
78877;SDS011;68257;43.514;1.498;2023-02-28T11:16:20;7.43;;;4.70;;
78877;SDS011;68257;43.514;1.498;2023-02-28T11:18:50;7.37;;;4.73;;
78877;SDS011;68257;43.514;1.498;2023-02-28T11:21:22;8.68;;;5.13;;
78877;SDS011;68257;43.514;1.498;2023-02-28T11:23:51;8.30;;;5.70;;
78877;SDS011;68257;43.514;1.498;2023-02-28T11:26:35;11.05;;;6.60;;
78877;SDS011;68257;43.514;1.498;2023-02-28T11:29:09;9.55;;;5.10;;
78877;SDS011;68257;43.514;1.498;2023-02-28T11:31:36;10.67;;;5.53;;
78877;SDS011;68257;43.514;1.498;2023-02-28T11:34:07;7.93;;;5.45;;
78877;SDS011;68257;43.514;1.498;2023-02-28T11:36:48;9.50;;;5.87;;
78877;SDS011;68257;43.514;1.498;2023-02-28T11:39:13;8.35;;;5.22;;
78877;SDS011;68257;43.514;1.498;2023-02-28T11:41:49;8.53;;;5.23;;
78877;SDS011;68257;43.514;1.498;2023-02-28T11:47:24;8.15;;;5.80;;
78877;SDS011;68257;43.514;1.498;2023-02-28T12:03:22;11.55;;;6.03;;
78877;SDS011;68257;43.514;1.498;2023-02-28T12:06:18;8.43;;;6.15;;
78877;SDS011;68257;43.514;1.498;2023-02-28T12:11:56;7.85;;;6.30;;
78877;SDS011;68257;43.514;1.498;2023-02-28T12:15:01;7.13;;;5.75;;
78877;SDS011;68257;43.514;1.498;2023-02-28T12:28:07;7.38;;;5.60;;
78877;SDS011;68257;43.514;1.498;2023-02-28T12:30:35;8.63;;;5.60;;
78877;SDS011;68257;43.514;1.498;2023-02-28T12:35:57;7.10;;;5.70;;
78877;SDS011;68257;43.514;1.498;2023-02-28T12:38:29;6.67;;;5.10;;
78877;SDS011;68257;43.514;1.498;2023-02-28T12:41:23;7.15;;;5.80;;
78877;SDS011;68257;43.514;1.498;2023-02-28T12:44:04;7.68;;;6.22;;
78877;SDS011;68257;43.514;1.498;2023-02-28T12:46:36;9.23;;;6.38;;
78877;SDS011;68257;43.514;1.498;2023-02-28T12:49:09;6.82;;;5.82;;
78877;SDS011;68257;43.514;1.498;2023-02-28T12:51:39;8.23;;;6.13;;
78877;SDS011;68257;43.514;1.498;2023-02-28T12:54:19;8.95;;;7.03;;
78877;SDS011;68257;43.514;1.498;2023-02-28T12:57:06;8.03;;;5.60;;
78877;SDS011;68257;43.514;1.498;2023-02-28T12:59:54;8.63;;;6.25;;
78877;SDS011;68257;43.514;1.498;2023-02-28T13:11:03;7.47;;;5.60;;
78877;SDS011;68257;43.514;1.498;2023-02-28T13:13:25;7.68;;;4.88;;
78877;SDS011;68257;43.514;1.498;2023-02-28T13:21:05;7.97;;;5.47;;
78877;SDS011;68257;43.514;1.498;2023-02-28T13:23:40;6.97;;;5.57;;
78877;SDS011;68257;43.514;1.498;2023-02-28T13:26:05;7.60;;;5.57;;
78877;SDS011;68257;43.514;1.498;2023-02-28T13:32:08;15.03;;;7.37;;
78877;SDS011;68257;43.514;1.498;2023-02-28T13:34:32;12.65;;;6.47;;
78877;SDS011;68257;43.514;1.498;2023-02-28T13:42:49;7.10;;;5.03;;
78877;SDS011;68257;43.514;1.498;2023-02-28T13:55:35;7.63;;;4.97;;
78877;SDS011;68257;43.514;1.498;2023-02-28T14:06:26;7.18;;;5.07;;
78877;SDS011;68257;43.514;1.498;2023-02-28T14:11:46;7.93;;;5.40;;
78877;SDS011;68257;43.514;1.498;2023-02-28T14:14:57;7.27;;;5.33;;
78877;SDS011;68257;43.514;1.498;2023-02-28T14:17:01;6.13;;;5.10;;
78877;SDS011;68257;43.514;1.498;2023-02-28T14:19:35;8.77;;;5.65;;
78877;SDS011;68257;43.514;1.498;2023-02-28T14:24:52;6.25;;;4.95;;
78877;SDS011;68257;43.514;1.498;2023-02-28T14:35:46;5.63;;;4.23;;
78877;SDS011;68257;43.514;1.498;2023-02-28T14:38:21;6.47;;;4.40;;
78877;SDS011;68257;43.514;1.498;2023-02-28T14:40:49;7.03;;;4.68;;
78877;SDS011;68257;43.514;1.498;2023-02-28T14:43:24;7.32;;;4.50;;
78877;SDS011;68257;43.514;1.498;2023-02-28T14:45:51;5.90;;;4.30;;
78877;SDS011;68257;43.514;1.498;2023-02-28T14:48:19;7.25;;;4.85;;
78877;SDS011;68257;43.514;1.498;2023-02-28T14:50:49;7.30;;;4.72;;
78877;SDS011;68257;43.514;1.498;2023-02-28T14:53:18;6.68;;;4.60;;
78877;SDS011;68257;43.514;1.498;2023-02-28T14:55:45;8.93;;;5.00;;
78877;SDS011;68257;43.514;1.498;2023-02-28T15:00:54;6.80;;;4.68;;
78877;SDS011;68257;43.514;1.498;2023-02-28T15:06:01;6.80;;;4.40;;
78877;SDS011;68257;43.514;1.498;2023-02-28T15:08:30;6.15;;;4.20;;
78877;SDS011;68257;43.514;1.498;2023-02-28T15:16:17;8.57;;;5.37;;
78877;SDS011;68257;43.514;1.498;2023-02-28T15:18:55;6.82;;;4.30;;
78877;SDS011;68257;43.514;1.498;2023-02-28T15:21:24;6.70;;;4.20;;
78877;SDS011;68257;43.514;1.498;2023-02-28T15:26:23;6.25;;;4.25;;
78877;SDS011;68257;43.514;1.498;2023-02-28T15:28:52;7.63;;;4.43;;
78877;SDS011;68257;43.514;1.498;2023-02-28T15:32:07;6.32;;;4.22;;
78877;SDS011;68257;43.514;1.498;2023-02-28T15:34:18;6.10;;;4.20;;
78877;SDS011;68257;43.514;1.498;2023-02-28T15:36:48;6.78;;;3.90;;
78877;SDS011;68257;43.514;1.498;2023-02-28T15:39:21;7.90;;;5.03;;
78877;SDS011;68257;43.514;1.498;2023-02-28T15:41:48;8.68;;;4.50;;
78877;SDS011;68257;43.514;1.498;2023-02-28T15:44:22;8.17;;;4.40;;
78877;SDS011;68257;43.514;1.498;2023-02-28T15:47:16;6.90;;;4.25;;
78877;SDS011;68257;43.514;1.498;2023-02-28T15:49:49;7.50;;;4.72;;
78877;SDS011;68257;43.514;1.498;2023-02-28T15:52:17;7.63;;;4.70;;
78877;SDS011;68257;43.514;1.498;2023-02-28T15:55:11;7.60;;;4.43;;
78877;SDS011;68257;43.514;1.498;2023-02-28T15:57:38;7.18;;;4.00;;
78877;SDS011;68257;43.514;1.498;2023-02-28T16:00:04;6.32;;;4.65;;
78877;SDS011;68257;43.514;1.498;2023-02-28T16:02:32;6.25;;;4.45;;
78877;SDS011;68257;43.514;1.498;2023-02-28T16:07:36;8.57;;;4.37;;
78877;SDS011;68257;43.514;1.498;2023-02-28T16:10:07;6.57;;;4.47;;
78877;SDS011;68257;43.514;1.498;2023-02-28T16:12:36;8.85;;;4.38;;
78877;SDS011;68257;43.514;1.498;2023-02-28T16:15:05;7.20;;;3.95;;
78877;SDS011;68257;43.514;1.498;2023-02-28T16:17:34;7.53;;;4.57;;
78877;SDS011;68257;43.514;1.498;2023-02-28T16:20:01;8.97;;;5.43;;
78877;SDS011;68257;43.514;1.498;2023-02-28T16:22:36;6.90;;;4.43;;
78877;SDS011;68257;43.514;1.498;2023-02-28T16:25:02;7.13;;;4.10;;
78877;SDS011;68257;43.514;1.498;2023-02-28T16:27:33;10.13;;;4.10;;
78877;SDS011;68257;43.514;1.498;2023-02-28T16:30:02;8.43;;;4.45;;
78877;SDS011;68257;43.514;1.498;2023-02-28T16:32:28;7.85;;;4.45;;
78877;SDS011;68257;43.514;1.498;2023-02-28T16:34:54;7.93;;;4.47;;
78877;SDS011;68257;43.514;1.498;2023-02-28T16:37:20;7.57;;;4.23;;
78877;SDS011;68257;43.514;1.498;2023-02-28T16:39:45;8.63;;;4.65;;
78877;SDS011;68257;43.514;1.498;2023-02-28T16:42:31;6.93;;;3.90;;
78877;SDS011;68257;43.514;1.498;2023-02-28T16:44:56;8.23;;;4.53;;
78877;SDS011;68257;43.514;1.498;2023-02-28T16:47:23;10.75;;;4.78;;
78877;SDS011;68257;43.514;1.498;2023-02-28T16:49:49;9.73;;;5.10;;
78877;SDS011;68257;43.514;1.498;2023-02-28T16:52:14;8.33;;;4.90;;
78877;SDS011;68257;43.514;1.498;2023-02-28T16:54:40;7.07;;;4.60;;
78877;SDS011;68257;43.514;1.498;2023-02-28T16:57:06;8.13;;;4.40;;
78877;SDS011;68257;43.514;1.498;2023-02-28T16:59:42;10.68;;;5.47;;
78877;SDS011;68257;43.514;1.498;2023-02-28T17:02:11;7.93;;;4.73;;
78877;SDS011;68257;43.514;1.498;2023-02-28T17:04:39;11.10;;;5.53;;
78877;SDS011;68257;43.514;1.498;2023-02-28T17:07:04;12.87;;;6.50;;
78877;SDS011;68257;43.514;1.498;2023-02-28T17:09:29;11.53;;;6.20;;
78877;SDS011;68257;43.514;1.498;2023-02-28T17:11:55;10.17;;;5.90;;
78877;SDS011;68257;43.514;1.498;2023-02-28T17:14:21;9.18;;;5.00;;
78877;SDS011;68257;43.514;1.498;2023-02-28T17:16:48;8.25;;;5.05;;
78877;SDS011;68257;43.514;1.498;2023-02-28T17:19:14;8.90;;;5.27;;
78877;SDS011;68257;43.514;1.498;2023-02-28T17:21:40;8.43;;;5.03;;
78877;SDS011;68257;43.514;1.498;2023-02-28T17:24:07;8.02;;;5.07;;
78877;SDS011;68257;43.514;1.498;2023-02-28T17:26:33;7.87;;;4.37;;
78877;SDS011;68257;43.514;1.498;2023-02-28T17:28:58;8.43;;;5.03;;
78877;SDS011;68257;43.514;1.498;2023-02-28T17:31:25;8.87;;;4.67;;